Time;durP1;ratioP1;P1;durP2;ratioP2;P2;SDS_P1;SDS_P2;PMS_P1;PMS_P2;Temp;Humidity;BMP_temperature;BMP_pressure;BME280_temperature;BME280_humidity;BME280_pressure;Samples;Min_cycle;Max_cycle;Signal;HPM_P1;HPM_P2
2022/07/22 00:00:17;;;;;;;6.63;4.05;;;;;;;23.05;60.63;94523.59;5072719;28;20565;-62
2022/07/22 00:02:42;;;;;;;5.10;3.30;;;;;;;23.05;60.54;94533.97;5072970;28;20185;-64
2022/07/22 00:05:10;;;;;;;7.32;3.05;;;;;;;22.93;60.44;94530.44;5072211;28;20193;-64
2022/07/22 00:07:37;;;;;;;5.43;3.45;;;;;;;22.61;60.86;94535.78;5080399;22;20248;-63
2022/07/22 00:10:04;;;;;;;6.45;3.60;;;;;;;22.66;61.30;94529.00;5072257;28;20264;-63
2022/07/22 00:12:30;;;;;;;4.57;3.20;;;;;;;22.57;60.62;94545.75;5072160;28;20213;-63
2022/07/22 00:14:55;;;;;;;6.47;3.50;;;;;;;22.45;60.81;94537.03;5072260;28;20556;-62
2022/07/22 00:17:21;;;;;;;4.07;3.25;;;;;;;22.42;60.79;94542.63;5072229;28;20697;-64
2022/07/22 00:19:47;;;;;;;5.95;3.63;;;;;;;22.24;62.28;94534.72;5053863;28;20196;-63
2022/07/22 00:22:12;;;;;;;4.78;3.72;;;;;;;22.13;62.50;94543.91;5070646;28;20212;-63
2022/07/22 00:24:38;;;;;;;7.35;3.88;;;;;;;22.00;61.93;94545.72;5072518;28;20204;-62
2022/07/22 00:27:04;;;;;;;5.30;3.13;;;;;;;21.82;63.54;94530.00;5072222;28;20213;-63
2022/07/22 00:29:29;;;;;;;5.57;3.65;;;;;;;21.48;65.14;94518.06;5072102;28;20575;-62
2022/07/22 00:31:55;;;;;;;5.38;3.22;;;;;;;21.47;65.78;94542.34;5072261;28;20280;-64
2022/07/22 00:34:21;;;;;;;3.85;3.30;;;;;;;21.56;65.67;94547.13;5053688;28;20213;-64
2022/07/22 00:36:46;;;;;;;8.68;3.72;;;;;;;21.39;65.79;94543.31;5071840;28;20220;-64
2022/07/22 00:39:12;;;;;;;3.80;3.40;;;;;;;21.36;66.60;94542.94;5054449;28;20177;-64
2022/07/22 00:41:37;;;;;;;7.18;3.88;;;;;;;21.27;66.75;94547.50;5072674;28;20207;-65
2022/07/22 00:44:06;;;;;;;6.55;3.97;;;;;;;21.26;66.89;94556.25;5072220;28;20216;-63
2022/07/22 00:46:34;;;;;;;7.80;4.13;;;;;;;21.12;67.56;94549.47;5071862;28;20204;-64
2022/07/22 00:49:07;;;;;;;4.10;3.50;;;;;;;21.25;67.26;94562.41;5071643;28;20193;-64
2022/07/22 00:51:33;;;;;;;3.78;3.38;;;;;;;21.21;67.26;94561.22;5071600;28;20301;-63
2022/07/22 00:53:59;;;;;;;6.03;3.70;;;;;;;21.20;67.27;94557.03;5071701;28;20266;-64
2022/07/22 00:56:26;;;;;;;10.88;3.95;;;;;;;21.23;68.08;94555.88;5071634;28;20200;-63
2022/07/22 00:58:56;;;;;;;4.95;4.05;;;;;;;21.27;67.44;94565.59;5053902;28;20239;-63
2022/07/22 01:01:22;;;;;;;4.93;3.22;;;;;;;21.30;66.83;94572.16;5054010;28;20708;-64
2022/07/22 01:03:47;;;;;;;8.57;3.45;;;;;;;21.20;67.10;94575.16;5071426;28;20193;-63
2022/07/22 01:06:13;;;;;;;7.10;3.60;;;;;;;21.19;67.21;94568.38;5071643;28;20709;-64
2022/07/22 01:08:40;;;;;;;5.13;3.42;;;;;;;21.16;67.95;94558.44;5069347;28;20548;-64
2022/07/22 01:11:11;;;;;;;5.78;3.45;;;;;;;21.11;68.02;94558.22;5071291;28;20363;-64
2022/07/22 01:13:36;;;;;;;6.75;3.67;;;;;;;20.92;68.97;94539.06;5071578;28;20231;-63
2022/07/22 01:16:04;;;;;;;5.63;3.30;;;;;;;20.81;69.67;94526.72;5071977;28;20209;-64
2022/07/22 01:18:29;;;;;;;8.07;3.88;;;;;;;20.66;70.55;94533.84;5071269;28;20222;-63
2022/07/22 01:20:55;;;;;;;4.53;3.40;;;;;;;20.69;70.64;94542.97;5070979;28;20204;-64
2022/07/22 01:23:21;;;;;;;4.82;4.15;;;;;;;20.70;70.51;94544.56;5071147;28;20181;-64
2022/07/22 01:25:46;;;;;;;6.03;3.53;;;;;;;20.71;70.69;94546.94;5053325;28;20231;-63
2022/07/22 01:28:12;;;;;;;5.82;3.60;;;;;;;20.76;70.81;94543.78;5070964;28;20200;-64
2022/07/22 01:30:38;;;;;;;4.80;3.70;;;;;;;20.71;71.11;94551.31;5071478;28;20309;-64
2022/07/22 01:33:03;;;;;;;4.88;3.72;;;;;;;20.69;71.17;94538.59;5071003;28;20212;-63
2022/07/22 01:35:29;;;;;;;5.00;3.80;;;;;;;20.72;71.11;94542.59;5071063;28;20213;-63
2022/07/22 01:37:56;;;;;;;8.63;3.95;;;;;;;20.69;71.04;94545.53;5071092;28;20193;-63
2022/07/22 01:40:21;;;;;;;4.93;3.65;;;;;;;20.77;71.14;94542.78;5070629;28;20280;-63
2022/07/22 01:42:47;;;;;;;5.88;3.78;;;;;;;20.81;70.57;94549.97;5071163;28;20742;-64
2022/07/22 01:45:13;;;;;;;7.13;3.72;;;;;;;20.76;71.26;94546.38;5052954;28;20320;-63
2022/07/22 01:47:39;;;;;;;6.15;4.22;;;;;;;20.80;70.92;94555.34;5071044;28;20268;-64
2022/07/22 01:50:07;;;;;;;4.38;3.85;;;;;;;20.91;70.33;94572.84;5078599;22;20259;-62
2022/07/22 01:52:32;;;;;;;5.55;3.55;;;;;;;20.96;70.36;94569.69;5071113;28;20213;-62
2022/07/22 01:54:58;;;;;;;6.72;3.75;;;;;;;20.97;70.40;94569.47;5053385;28;20250;-64
2022/07/22 01:57:23;;;;;;;7.05;4.07;;;;;;;21.06;69.16;94589.03;5070533;28;20189;-65
2022/07/22 01:59:49;;;;;;;4.68;3.83;;;;;;;21.02;69.50;94590.41;5070779;28;20612;-63
2022/07/22 02:02:14;;;;;;;4.72;3.42;;;;;;;21.15;68.24;94605.94;5070547;28;20208;-63
2022/07/22 02:04:40;;;;;;;4.30;3.42;;;;;;;21.11;68.22;94606.56;5070914;28;20189;-65
2022/07/22 02:07:05;;;;;;;6.93;4.20;;;;;;;21.15;68.06;94605.19;5035844;28;20223;-64
2022/07/22 02:09:31;;;;;;;5.97;3.90;;;;;;;21.12;67.69;94605.56;5071425;28;20260;-64
2022/07/22 02:11:57;;;;;;;5.13;3.90;;;;;;;21.00;68.47;94599.31;5070440;28;20229;-63
2022/07/22 02:14:22;;;;;;;11.75;4.13;;;;;;;21.03;68.19;94610.09;5070582;28;20207;-63
2022/07/22 02:16:48;;;;;;;4.60;3.58;;;;;;;20.99;68.75;94605.50;5070580;28;20299;-66
2022/07/22 02:19:13;;;;;;;4.32;3.92;;;;;;;20.85;68.76;94595.09;5070160;28;20180;-64
2022/07/22 02:21:39;;;;;;;7.25;4.07;;;;;;;20.85;70.17;94573.63;5052383;28;20217;-62
2022/07/22 02:24:05;;;;;;;7.30;3.72;;;;;;;20.89;70.16;94575.63;5070308;28;20191;-62
2022/07/22 02:26:31;;;;;;;9.32;6.75;;;;;;;20.71;70.36;94577.97;5070180;28;20208;-63
2022/07/22 02:28:57;;;;;;;5.30;3.78;;;;;;;20.95;68.99;94609.47;5070415;28;20266;-65
2022/07/22 02:31:22;;;;;;;5.18;4.07;;;;;;;20.88;69.61;94593.94;5070327;28;20216;-64
2022/07/22 02:33:48;;;;;;;5.60;4.00;;;;;;;20.87;69.60;94590.53;5069814;28;20213;-64
2022/07/22 02:36:13;;;;;;;4.32;3.85;;;;;;;20.76;69.95;94585.13;5070209;28;20705;-64
2022/07/22 02:38:41;;;;;;;8.57;4.13;;;;;;;20.60;70.86;94564.81;5069982;28;20300;-63
2022/07/22 02:41:07;;;;;;;6.53;4.00;;;;;;;20.67;70.82;94571.59;5070515;28;20196;-63
2022/07/22 02:43:32;;;;;;;6.63;4.35;;;;;;;20.63;70.87;94562.63;5070095;28;20216;-62
2022/07/22 02:45:58;;;;;;;7.65;3.88;;;;;;;20.44;72.27;94540.09;5057249;22;20713;-63
2022/07/22 02:48:23;;;;;;;7.35;4.32;;;;;;;20.43;71.87;94546.25;5050183;28;20215;-63
2022/07/22 02:50:49;;;;;;;5.20;4.18;;;;;;;20.52;72.31;94544.31;5050022;28;20354;-63
2022/07/22 02:53:15;;;;;;;10.02;4.07;;;;;;;20.54;71.26;94568.94;5049035;28;20593;-63
2022/07/22 02:55:41;;;;;;;4.88;3.72;;;;;;;20.59;70.78;94579.50;5048434;28;20322;-64
2022/07/22 02:58:08;;;;;;;4.47;3.78;;;;;;;20.60;71.32;94569.97;5050338;28;20276;-63
2022/07/22 03:00:35;;;;;;;7.05;3.70;;;;;;;20.61;71.94;94561.22;5050820;28;20607;-62
2022/07/22 03:03:01;;;;;;;5.25;3.92;;;;;;;20.55;72.64;94541.31;5049778;28;20679;-63
2022/07/22 03:05:26;;;;;;;7.40;3.70;;;;;;;20.61;72.47;94540.53;5049074;28;20210;-63
2022/07/22 03:07:52;;;;;;;8.02;4.32;;;;;;;20.56;72.17;94548.88;5050035;28;20272;-64
2022/07/22 03:10:18;;;;;;;8.63;4.00;;;;;;;20.66;72.29;94549.34;5058497;22;20193;-65
2022/07/22 03:12:44;;;;;;;5.55;4.10;;;;;;;20.69;71.98;94558.47;5049573;28;20627;-64
2022/07/22 03:15:10;;;;;;;6.32;4.28;;;;;;;20.77;71.32;94566.84;5049750;28;20388;-64
2022/07/22 03:17:37;;;;;;;6.53;4.55;;;;;;;20.77;71.33;94576.38;5049624;28;20257;-64
2022/07/22 03:20:09;;;;;;;6.47;4.47;;;;;;;20.75;70.49;94586.91;5049703;28;20177;-64
2022/07/22 03:22:36;;;;;;;12.63;4.63;;;;;;;20.69;71.98;94558.47;5049857;28;20655;-63
2022/07/22 03:25:02;;;;;;;6.70;4.47;;;;;;;20.71;71.11;94572.78;5049476;28;20177;-63
2022/07/22 03:27:28;;;;;;;9.50;4.60;;;;;;;20.41;72.57;94542.25;5049322;28;20216;-62
2022/07/22 03:29:53;;;;;;;9.38;4.85;;;;;;;20.48;72.84;94543.09;5049401;28;20186;-63
2022/07/22 03:32:19;;;;;;;11.52;4.97;;;;;;;20.54;72.10;94566.34;5050158;28;20197;-63
2022/07/22 03:34:44;;;;;;;7.20;4.43;;;;;;;20.77;70.48;94594.47;5052865;28;20639;-63
2022/07/22 03:37:10;;;;;;;6.70;4.47;;;;;;;20.91;70.04;94609.03;5052426;28;20604;-63
2022/07/22 03:39:36;;;;;;;10.82;5.28;;;;;;;20.77;70.48;94592.69;5052740;28;20174;-63
2022/07/22 03:42:02;;;;;;;7.72;4.30;;;;;;;20.96;70.08;94609.25;5053025;28;20271;-63
2022/07/22 03:44:28;;;;;;;8.45;4.97;;;;;;;20.95;68.04;94645.66;5052679;28;20256;-63
2022/07/22 03:46:54;;;;;;;5.75;4.72;;;;;;;21.00;68.76;94623.41;5052675;28;20355;-64
2022/07/22 03:49:19;;;;;;;8.00;4.95;;;;;;;20.98;69.48;94620.22;5051332;28;20224;-64
2022/07/22 03:51:45;;;;;;;6.30;3.95;;;;;;;21.03;68.86;94628.19;5052768;28;20212;-64
2022/07/22 03:54:10;;;;;;;10.10;4.75;;;;;;;21.04;68.93;94629.81;5052458;28;20274;-62
2022/07/22 03:56:36;;;;;;;9.23;4.60;;;;;;;20.99;69.15;94632.13;5051391;28;20251;-62
2022/07/22 03:59:02;;;;;;;7.65;5.05;;;;;;;20.91;69.51;94619.38;5052595;28;20208;-62
2022/07/22 04:01:28;;;;;;;11.27;5.50;;;;;;;20.67;71.84;94568.19;5034607;28;20684;-61
2022/07/22 04:03:54;;;;;;;6.35;5.43;;;;;;;20.36;74.17;94536.88;5034654;28;20212;-63
2022/07/22 04:06:19;;;;;;;9.75;5.32;;;;;;;20.39;75.02;94536.50;5050973;28;20592;-63
2022/07/22 04:08:45;;;;;;;8.70;4.78;;;;;;;20.50;74.50;94554.03;5034320;28;20232;-64
2022/07/22 04:11:11;;;;;;;6.32;4.88;;;;;;;20.62;74.42;94568.00;5034245;28;20220;-64
2022/07/22 04:13:36;;;;;;;8.18;5.07;;;;;;;20.71;74.04;94580.53;5034060;28;20209;-63
2022/07/22 04:16:02;;;;;;;8.85;4.43;;;;;;;20.75;73.89;94578.34;5052099;28;20600;-64
2022/07/22 04:18:30;;;;;;;6.93;5.00;;;;;;;20.75;73.75;94576.59;5052030;28;20189;-65
2022/07/22 04:20:56;;;;;;;8.55;4.88;;;;;;;20.77;73.89;94576.38;5052136;28;20206;-63
2022/07/22 04:23:22;;;;;;;8.32;5.38;;;;;;;20.87;73.35;94594.91;5055198;22;20222;-64
2022/07/22 04:25:48;;;;;;;12.82;5.97;;;;;;;21.02;73.23;94597.38;5038975;28;20205;-63
2022/07/22 04:28:13;;;;;;;8.70;5.65;;;;;;;20.94;72.36;94611.25;5051911;28;20228;-63
2022/07/22 04:30:39;;;;;;;8.40;4.47;;;;;;;21.25;70.20;94672.84;5051808;28;20240;-64
2022/07/22 04:33:05;;;;;;;7.18;4.32;;;;;;;21.31;68.54;94688.34;5051745;28;20598;-64
2022/07/22 04:35:30;;;;;;;10.65;4.88;;;;;;;21.35;66.25;94735.34;5051946;28;20279;-64
2022/07/22 04:37:56;;;;;;;7.20;5.07;;;;;;;21.19;67.47;94700.25;5051892;28;20178;-63
2022/07/22 04:40:21;;;;;;;7.63;4.78;;;;;;;21.27;67.72;94689.72;5051668;28;20201;-63
2022/07/22 04:42:47;;;;;;;7.22;4.80;;;;;;;21.34;67.98;94692.34;5051498;28;20202;-64
2022/07/22 04:45:12;;;;;;;6.88;4.45;;;;;;;21.24;68.76;94676.41;5051584;28;20273;-64
2022/07/22 04:47:38;;;;;;;6.90;4.70;;;;;;;21.14;69.40;94666.44;5051713;28;20557;-64
2022/07/22 04:50:04;;;;;;;8.38;5.57;;;;;;;21.30;70.56;94681.59;5051419;28;20197;-64
2022/07/22 04:52:30;;;;;;;7.18;4.93;;;;;;;21.18;70.70;94667.63;5051275;28;20281;-64
2022/07/22 04:54:58;;;;;;;11.73;4.88;;;;;;;21.25;70.13;94680.59;5050302;28;20192;-65
2022/07/22 04:57:25;;;;;;;15.00;13.02;;;;;;;21.20;75.55;94606.19;5051360;28;20204;-64
2022/07/22 04:59:52;;;;;;;7.93;6.10;;;;;;;21.20;74.26;94629.44;5051440;28;20221;-64
2022/07/22 05:02:19;;;;;;;12.27;8.75;;;;;;;21.20;74.11;94613.94;5051282;28;20648;-65
2022/07/22 05:04:44;;;;;;;11.98;6.05;;;;;;;21.36;72.25;94665.31;5051162;28;20188;-64
2022/07/22 05:07:10;;;;;;;9.43;6.57;;;;;;;21.29;72.82;94643.78;5051530;28;20297;-65
2022/07/22 05:09:36;;;;;;;10.80;6.45;;;;;;;21.46;71.08;94676.06;5049980;28;20682;-63
2022/07/22 05:12:01;;;;;;;9.93;6.68;;;;;;;21.61;74.84;94617.16;5043171;22;20287;-64
2022/07/22 05:14:27;;;;;;;8.88;6.75;;;;;;;21.77;73.21;94625.56;5031269;28;20654;-64
2022/07/22 05:16:52;;;;;;;8.73;6.60;;;;;;;21.71;71.97;94658.22;5046651;28;20300;-64
2022/07/22 05:19:18;;;;;;;10.48;6.90;;;;;;;21.73;72.21;94659.59;5051055;28;20568;-64
2022/07/22 05:21:43;;;;;;;10.77;6.55;;;;;;;22.10;73.92;94619.41;5050978;28;20216;-63
2022/07/22 05:24:09;;;;;;;9.68;6.80;;;;;;;22.34;70.71;94686.13;5049645;28;20651;-64
2022/07/22 05:26:35;;;;;;;14.27;6.82;;;;;;;22.45;71.01;94684.72;5051328;28;20251;-64
2022/07/22 05:29:00;;;;;;;8.52;6.75;;;;;;;22.55;69.30;94706.63;5049625;28;20238;-64
2022/07/22 05:31:26;;;;;;;11.35;6.05;;;;;;;22.63;71.20;94682.31;5051650;28;20287;-63
2022/07/22 05:33:51;;;;;;;10.75;6.60;;;;;;;22.50;69.37;94716.03;5050144;28;20210;-62
2022/07/22 05:36:17;;;;;;;7.82;5.80;;;;;;;22.65;70.59;94687.31;5049845;28;20214;-63
2022/07/22 05:38:43;;;;;;;12.75;6.15;;;;;;;22.68;69.74;94703.28;5049235;28;20193;-62
2022/07/22 05:41:08;;;;;;;11.27;6.93;;;;;;;22.80;67.41;94753.50;5048878;28;20213;-63
2022/07/22 05:43:34;;;;;;;8.80;6.35;;;;;;;22.96;69.38;94706.38;5066115;28;20224;-62
2022/07/22 05:46:00;;;;;;;12.43;6.82;;;;;;;23.09;67.91;94747.84;5066004;22;20236;-60
2022/07/22 05:48:25;;;;;;;12.18;6.70;;;;;;;23.02;65.27;94791.16;5050288;28;20205;-61
2022/07/22 05:50:51;;;;;;;8.10;5.65;;;;;;;23.02;65.25;94788.56;5051290;28;20647;-63
2022/07/22 05:53:16;;;;;;;12.18;6.38;;;;;;;23.07;64.03;94800.91;5050664;28;20209;-65
2022/07/22 05:55:42;;;;;;;9.80;6.50;;;;;;;23.23;62.27;94836.81;5050226;28;20198;-64
2022/07/22 05:58:08;;;;;;;10.95;6.13;;;;;;;23.37;64.57;94772.75;5041588;22;20265;-64
2022/07/22 06:00:34;;;;;;;11.15;6.72;;;;;;;23.45;62.62;94827.81;5050548;28;20216;-65
2022/07/22 06:03:00;;;;;;;9.15;6.22;;;;;;;23.44;62.53;94831.41;5051032;28;20185;-64
2022/07/22 06:05:25;;;;;;;8.52;6.50;;;;;;;23.26;63.28;94800.88;5060641;22;20199;-65
2022/07/22 06:07:51;;;;;;;15.20;6.68;;;;;;;23.13;64.92;94767.19;5070717;28;20591;-62
2022/07/22 06:10:17;;;;;;;13.35;6.57;;;;;;;23.04;63.53;94799.53;5070307;28;20651;-64
2022/07/22 06:12:43;;;;;;;11.23;6.65;;;;;;;22.98;64.21;94786.56;5070393;28;20227;-63
2022/07/22 06:15:09;;;;;;;16.10;6.95;;;;;;;23.19;63.68;94796.72;5052497;28;20200;-64
2022/07/22 06:17:34;;;;;;;14.35;6.65;;;;;;;23.17;64.12;94788.31;5070253;28;20208;-64
2022/07/22 06:20:00;;;;;;;11.30;6.53;;;;;;;23.30;64.00;94778.72;5070250;28;20238;-62
2022/07/22 06:22:26;;;;;;;11.90;5.90;;;;;;;23.45;63.98;94780.28;5070272;28;20696;-64
2022/07/22 06:24:51;;;;;;;9.68;5.93;;;;;;;23.44;62.51;94821.03;5070354;28;20212;-61
2022/07/22 06:27:17;;;;;;;9.70;6.00;;;;;;;23.44;63.19;94810.63;5070230;28;20239;-61
2022/07/22 06:29:43;;;;;;;16.02;7.05;;;;;;;23.44;62.89;94810.63;5052564;28;21102;-63
2022/07/22 06:32:08;;;;;;;11.50;6.25;;;;;;;23.62;62.91;94807.38;5052228;28;20750;-65
2022/07/22 06:34:34;;;;;;;13.93;6.50;;;;;;;23.70;63.09;94801.94;5070082;28;20212;-64
2022/07/22 06:37:00;;;;;;;14.32;6.10;;;;;;;23.82;62.92;94810.69;5069850;28;20327;-64
2022/07/22 06:39:26;;;;;;;15.43;6.32;;;;;;;24.09;62.85;94817.38;5070027;28;20280;-64
2022/07/22 06:41:51;;;;;;;12.23;6.30;;;;;;;24.03;61.87;94823.41;5070287;28;20343;-64
2022/07/22 06:44:17;;;;;;;15.60;5.90;;;;;;;24.18;61.78;94832.50;5070207;28;20666;-64
2022/07/22 06:46:42;;;;;;;11.18;7.20;;;;;;;24.25;60.98;94845.47;5070153;28;20203;-61
2022/07/22 06:49:08;;;;;;;13.25;6.47;;;;;;;24.31;61.35;94847.25;5070155;28;20185;-62
2022/07/22 06:51:34;;;;;;;12.55;6.57;;;;;;;24.40;61.17;94840.78;5051673;28;20219;-63
2022/07/22 06:54:01;;;;;;;14.90;7.22;;;;;;;24.51;59.97;94866.13;5069848;28;20208;-63
2022/07/22 06:56:27;;;;;;;14.23;7.55;;;;;;;24.57;60.25;94851.47;5070003;28;20276;-64
2022/07/22 06:58:53;;;;;;;15.90;7.03;;;;;;;24.67;60.33;94857.00;5052093;28;20228;-62
2022/07/22 07:01:18;;;;;;;10.00;6.25;;;;;;;24.81;59.75;94866.31;5070015;28;20216;-64
2022/07/22 07:03:44;;;;;;;16.70;6.68;;;;;;;24.93;59.36;94873.22;5069838;28;20617;-65
2022/07/22 07:06:11;;;;;;;12.23;6.65;;;;;;;24.96;58.06;94913.66;5069980;28;20675;-64
2022/07/22 07:08:40;;;;;;;11.75;6.30;;;;;;;25.07;57.85;94905.16;5073025;28;20215;-62
2022/07/22 07:11:06;;;;;;;8.18;6.00;;;;;;;25.18;56.80;94942.69;5071823;28;20635;-62
2022/07/22 07:13:32;;;;;;;11.70;6.32;;;;;;;25.35;56.86;94930.75;5055014;28;20216;-64
2022/07/22 07:15:57;;;;;;;10.75;5.75;;;;;;;25.50;55.57;94965.91;5073186;28;20756;-63
2022/07/22 07:18:23;;;;;;;8.65;5.18;;;;;;;25.53;53.56;95004.53;5073154;28;20192;-63
2022/07/22 07:20:48;;;;;;;13.23;5.55;;;;;;;25.66;55.27;94935.91;5073294;28;20255;-63
2022/07/22 07:23:14;;;;;;;14.57;5.53;;;;;;;25.80;51.76;95047.59;5073052;28;20254;-64
2022/07/22 07:25:41;;;;;;;10.27;5.20;;;;;;;25.81;50.91;95056.22;5088008;22;20216;-62
2022/07/22 07:28:06;;;;;;;12.70;5.10;;;;;;;25.95;51.20;95036.84;5072962;28;20327;-63
2022/07/22 07:30:32;;;;;;;12.27;5.22;;;;;;;26.08;51.45;95034.13;5071375;28;20295;-63
2022/07/22 07:33:00;;;;;;;8.95;5.03;;;;;;;26.21;50.81;95049.66;5072858;28;20288;-66
2022/07/22 07:35:26;;;;;;;11.40;4.75;;;;;;;26.33;49.68;95058.34;5072562;28;20234;-64
2022/07/22 07:37:53;;;;;;;10.43;5.18;;;;;;;26.46;49.35;95063.41;5072681;28;20215;-62
2022/07/22 07:40:19;;;;;;;8.63;5.18;;;;;;;26.55;48.20;95090.81;5054987;28;20287;-63
2022/07/22 07:42:45;;;;;;;8.38;4.95;;;;;;;26.69;49.28;95059.34;5071649;28;20303;-61
2022/07/22 07:45:11;;;;;;;11.10;5.40;;;;;;;26.89;49.90;95024.19;5072979;28;20271;-61
2022/07/22 07:47:37;;;;;;;10.18;4.90;;;;;;;27.00;47.55;95095.75;5072599;28;20268;-61
2022/07/22 07:50:07;;;;;;;10.02;4.97;;;;;;;27.11;46.45;95128.94;5054770;28;20196;-62
2022/07/22 07:52:38;;;;;;;10.65;5.43;;;;;;;27.14;47.54;95089.34;5071032;28;20189;-63
2022/07/22 07:55:07;;;;;;;8.55;4.68;;;;;;;27.15;46.16;94994.34;5072568;28;20275;-63
2022/07/22 07:57:33;;;;;;;5.22;4.20;;;;;;;27.26;45.75;94968.25;5054414;28;20204;-63
2022/07/22 07:59:58;;;;;;;8.43;4.63;;;;;;;27.23;45.31;94932.09;5054214;28;20273;-63
2022/07/22 08:02:24;;;;;;;12.57;4.82;;;;;;;27.29;44.26;94943.50;5072438;28;20645;-64
2022/07/22 08:04:49;;;;;;;7.68;4.57;;;;;;;27.39;45.18;94922.88;5072564;28;20640;-63
2022/07/22 08:07:16;;;;;;;9.52;4.47;;;;;;;27.52;45.27;94914.78;5072432;28;20251;-63
2022/07/22 08:09:41;;;;;;;9.27;4.18;;;;;;;27.55;44.25;94937.88;5072209;28;20223;-63
2022/07/22 08:12:07;;;;;;;9.70;4.38;;;;;;;27.71;43.85;94926.72;5054142;28;20302;-64
2022/07/22 08:14:33;;;;;;;6.03;4.60;;;;;;;27.79;44.47;94912.50;5079624;22;20215;-63
2022/07/22 08:16:59;;;;;;;8.32;4.35;;;;;;;27.90;41.82;94964.75;5072336;28;20209;-64
2022/07/22 08:19:25;;;;;;;5.75;4.32;;;;;;;28.17;43.04;94926.69;5071886;28;20208;-62
2022/07/22 08:21:50;;;;;;;9.43;4.60;;;;;;;28.36;43.63;94919.47;5072127;28;20215;-63
2022/07/22 08:24:16;;;;;;;9.60;4.22;;;;;;;28.56;42.17;94953.09;5072394;28;20221;-64
2022/07/22 08:26:42;;;;;;;11.90;3.85;;;;;;;28.35;41.33;94948.44;5071993;28;20209;-63
2022/07/22 08:29:09;;;;;;;5.10;4.10;;;;;;;28.45;42.17;94927.72;5071903;28;20181;-63
2022/07/22 08:31:36;;;;;;;11.05;4.78;;;;;;;28.60;42.61;94920.19;5053877;28;20244;-64
2022/07/22 08:34:04;;;;;;;9.20;4.45;;;;;;;28.93;43.29;94909.75;5071680;28;20208;-64
2022/07/22 08:36:30;;;;;;;6.15;3.97;;;;;;;28.97;40.88;94947.53;5071864;28;20265;-64
2022/07/22 08:38:56;;;;;;;10.00;4.35;;;;;;;28.85;40.45;94954.66;5071797;28;20196;-65
2022/07/22 08:41:23;;;;;;;6.30;4.43;;;;;;;29.00;41.57;94926.13;5071750;28;20265;-65
2022/07/22 08:43:50;;;;;;;8.82;4.72;;;;;;;29.14;41.81;94906.47;5071673;28;20329;-64
2022/07/22 08:46:16;;;;;;;5.80;3.97;;;;;;;29.28;40.42;94951.50;5071913;28;20618;-63
2022/07/22 08:48:42;;;;;;;7.30;4.15;;;;;;;29.16;38.53;94971.72;5071807;28;20372;-63
2022/07/22 08:51:07;;;;;;;9.05;3.95;;;;;;;29.12;39.03;94967.97;5071545;28;20200;-65
2022/07/22 08:53:33;;;;;;;10.85;4.20;;;;;;;28.98;39.00;94959.63;5071844;28;20217;-63
2022/07/22 08:56:06;;;;;;;8.05;4.18;;;;;;;29.15;38.38;94955.22;5071516;28;20208;-63
2022/07/22 08:58:32;;;;;;;6.90;3.80;;;;;;;29.24;37.98;94960.84;5071701;28;20197;-64
2022/07/22 09:01:23;;;;;;;5.43;4.13;;;;;;;29.29;37.69;94980.06;5071305;28;20273;-63
2022/07/22 09:03:52;;;;;;;6.45;3.92;;;;;;;29.32;38.69;94965.69;5067788;28;20197;-64
2022/07/22 09:06:22;;;;;;;7.50;3.80;;;;;;;29.33;37.86;94967.31;5053643;28;20277;-64
2022/07/22 09:08:53;;;;;;;7.00;4.30;;;;;;;29.33;38.28;94954.22;5071621;28;20267;-64
2022/07/22 09:11:20;;;;;;;5.10;4.30;;;;;;;29.58;36.87;94978.97;5071588;28;20701;-62
2022/07/22 09:13:47;;;;;;;8.77;3.72;;;;;;;29.83;37.53;94968.09;5071559;28;20215;-64
2022/07/22 09:16:12;;;;;;;7.05;4.38;;;;;;;29.88;36.63;94970.78;5085244;22;20694;-64
2022/07/22 09:18:53;;;;;;;4.88;3.78;;;;;;;30.07;37.58;94943.25;5069370;28;20447;-63
2022/07/22 09:21:21;;;;;;;8.75;3.90;;;;;;;30.35;37.57;94958.03;5071228;28;20262;-63
2022/07/22 09:23:46;;;;;;;9.73;4.72;;;;;;;30.52;36.66;94974.53;5071076;28;20207;-63
2022/07/22 09:26:37;;;;;;;5.97;3.60;;;;;;;30.28;35.88;94981.03;5071036;28;20381;-63
2022/07/22 09:29:04;;;;;;;10.82;3.95;;;;;;;30.26;36.05;94967.38;5070909;28;20275;-64
2022/07/22 09:31:35;;;;;;;7.60;4.28;;;;;;;30.36;35.78;94963.03;5070065;28;20220;-64
2022/07/22 09:34:01;;;;;;;9.13;4.75;;;;;;;30.65;37.01;94934.75;5070911;28;20204;-64
2022/07/22 09:36:56;;;;;;;9.27;4.88;;;;;;;30.82;35.68;94959.09;5071092;28;20216;-63
2022/07/22 09:39:30;;;;;;;8.88;4.47;;;;;;;31.12;36.66;94930.53;5052780;28;20658;-64
2022/07/22 09:42:01;;;;;;;10.13;3.80;;;;;;;31.16;34.45;94972.84;5070794;28;20526;-63
2022/07/22 09:44:27;;;;;;;7.50;3.60;;;;;;;31.29;34.77;94961.94;5070904;28;20671;-64
2022/07/22 09:46:54;;;;;;;8.70;3.67;;;;;;;31.35;33.66;94979.34;5071234;28;20702;-63
2022/07/22 09:49:37;;;;;;;6.32;4.13;;;;;;;31.29;33.67;94975.84;5070756;28;20204;-63
2022/07/22 09:52:03;;;;;;;6.70;4.35;;;;;;;31.59;34.10;94958.78;5053050;28;20282;-64
2022/07/22 09:54:30;;;;;;;8.77;3.65;;;;;;;32.02;35.63;94924.31;5071070;28;20208;-64
2022/07/22 09:56:57;;;;;;;6.55;3.50;;;;;;;32.32;35.55;94934.22;5070459;28;20232;-64
2022/07/22 09:59:22;;;;;;;4.60;3.72;;;;;;;32.77;35.06;94942.28;5070982;28;20169;-64
2022/07/22 10:01:54;;;;;;;5.82;3.95;;;;;;;33.05;35.49;94924.16;5070672;28;20224;-64
2022/07/22 10:04:20;;;;;;;6.10;4.18;;;;;;;33.25;35.05;94928.66;5070800;28;20253;-64
2022/07/22 10:06:48;;;;;;;4.75;3.58;;;;;;;33.46;34.03;94953.19;5070628;28;20216;-63
2022/07/22 10:09:16;;;;;;;6.05;3.60;;;;;;;33.61;35.28;94916.28;5070699;28;20191;-62
2022/07/22 10:11:45;;;;;;;5.88;3.72;;;;;;;33.39;32.05;94979.03;5070768;28;20223;-63
2022/07/22 10:14:16;;;;;;;4.97;3.92;;;;;;;33.47;31.84;94994.34;5070386;28;20227;-64
2022/07/22 10:16:43;;;;;;;9.35;4.10;;;;;;;33.46;32.40;94953.19;5070543;28;20209;-62
2022/07/22 10:19:17;;;;;;;4.50;3.80;;;;;;;33.47;30.50;94994.34;5052412;28;20736;-62
2022/07/22 10:21:43;;;;;;;5.22;4.07;;;;;;;33.12;30.95;94973.19;5070843;28;20667;-63
2022/07/22 10:24:23;;;;;;;5.25;3.65;;;;;;;32.79;31.39;94967.31;5070363;28;20375;-63
2022/07/22 10:26:55;;;;;;;6.93;4.05;;;;;;;32.84;32.37;94935.72;5070208;28;20217;-63
2022/07/22 10:29:34;;;;;;;4.57;3.80;;;;;;;33.23;32.59;94932.63;5070572;28;20185;-64
2022/07/22 10:32:21;;;;;;;4.40;3.97;;;;;;;33.36;33.51;94913.63;5070341;28;20213;-64
2022/07/22 10:34:58;;;;;;;6.97;3.90;;;;;;;33.64;31.37;94969.28;5070212;28;20227;-63
2022/07/22 10:37:33;;;;;;;5.75;3.50;;;;;;;34.09;32.99;94907.72;5070600;28;20188;-65
2022/07/22 10:40:08;;;;;;;6.30;4.13;;;;;;;34.23;30.05;94984.50;5070336;28;20184;-62
2022/07/22 10:42:59;;;;;;;4.72;4.15;;;;;;;33.59;30.50;94956.13;5054935;28;20192;-64
2022/07/22 10:45:26;;;;;;;10.10;4.10;;;;;;;33.67;30.48;94952.16;5073522;28;20713;-63
2022/07/22 10:47:55;;;;;;;6.13;4.22;;;;;;;33.61;30.03;94947.94;5073669;28;20666;-64
2022/07/22 10:50:37;;;;;;;5.35;3.95;;;;;;;33.73;31.62;94924.69;5073450;28;20219;-62
2022/07/22 10:53:24;;;;;;;9.50;4.30;;;;;;;34.03;32.35;94902.72;5073333;28;20216;-63
2022/07/22 10:56:04;;;;;;;5.63;3.75;;;;;;;34.41;31.48;94921.34;5073533;28;20308;-62
2022/07/22 10:58:32;;;;;;;4.82;4.00;;;;;;;34.63;32.53;94887.44;5073634;28;20180;-62
2022/07/22 11:01:04;;;;;;;6.95;4.28;;;;;;;34.68;28.82;94971.94;5073412;28;20201;-64
2022/07/22 11:03:32;;;;;;;7.25;3.78;;;;;;;34.56;28.99;94965.41;5056016;28;20551;-61
2022/07/22 11:06:29;;;;;;;6.72;4.25;;;;;;;34.57;28.62;94959.84;5073114;28;20223;-61
2022/07/22 11:09:01;;;;;;;8.32;4.43;;;;;;;34.76;30.65;94915.09;5073487;28;20193;-61
2022/07/22 11:11:43;;;;;;;6.72;4.32;;;;;;;34.36;28.87;94955.69;5073220;28;20215;-60
2022/07/22 11:14:20;;;;;;;10.20;4.72;;;;;;;34.82;30.32;94921.94;5072966;28;20307;-61
2022/07/22 11:16:49;;;;;;;6.15;4.25;;;;;;;35.14;30.63;94916.97;5055103;28;20291;-62
2022/07/22 11:19:18;;;;;;;8.75;4.53;;;;;;;35.29;29.96;94921.38;5073177;28;20219;-62
2022/07/22 11:21:50;;;;;;;6.28;5.47;;;;;;;35.60;32.32;94880.34;5073359;28;20197;-62
2022/07/22 11:24:16;;;;;;;5.97;4.07;;;;;;;35.75;30.08;94930.50;5073137;28;20322;-63
2022/07/22 11:26:45;;;;;;;5.32;4.20;;;;;;;35.50;30.29;94925.44;5073368;28;20686;-63
2022/07/22 11:29:33;;;;;;;9.20;5.32;;;;;;;35.95;29.57;94930.31;5055238;28;20207;-62
2022/07/22 11:31:59;;;;;;;8.40;4.97;;;;;;;36.01;29.06;94928.41;5073143;28;20260;-61